Rock Creek, Minnesota
Current Conditions -  °F | °C
As of 12:16 AM on Monday 26 Jan 2015 (Local Time) from KROS Reporting Station
Overcast Overcast  
Wind Chill: 14°   Ceiling: 11000
Heat Index: 21°   Visibility: 10mi
Dew Point: 15°   Wind: 6mph
Humidity: 77%   Direction: 180°S
Pressure: 29.92"   Gusts: NA
Location:  45.76°N, 92.96°W
Report Text: KROS 260616Z AUTO 18005KT 10SM OVC110 M06/M09 A2992 RMK AO2 T10601094
Loading
Personal Weather Stations






























Interactive Weather Map New forecast layout! Learn more

10-Day Weather Forecast

Advertisements
Track Severe Weather on mobile